sensor_id;sensor_type;location;lat;lon;timestamp;P1;durP1;ratioP1;P2;durP2;ratioP2
66342;SDS011;53144;51.524;5.080;2023-04-25T00:00:15;15.73;;;4.90;;
66342;SDS011;53144;51.524;5.080;2023-04-25T00:02:40;14.48;;;5.22;;
66342;SDS011;53144;51.524;5.080;2023-04-25T00:05:06;15.20;;;4.75;;
66342;SDS011;53144;51.524;5.080;2023-04-25T00:07:32;19.15;;;5.25;;
66342;SDS011;53144;51.524;5.080;2023-04-25T00:09:58;15.20;;;4.50;;
66342;SDS011;53144;51.524;5.080;2023-04-25T00:12:24;12.98;;;5.18;;
66342;SDS011;53144;51.524;5.080;2023-04-25T00:17:15;13.40;;;4.68;;
66342;SDS011;53144;51.524;5.080;2023-04-25T00:19:44;13.90;;;4.95;;
66342;SDS011;53144;51.524;5.080;2023-04-25T00:22:11;12.60;;;4.50;;
66342;SDS011;53144;51.524;5.080;2023-04-25T00:24:37;14.43;;;4.15;;
66342;SDS011;53144;51.524;5.080;2023-04-25T00:27:02;21.00;;;5.13;;
66342;SDS011;53144;51.524;5.080;2023-04-25T00:29:28;12.50;;;5.03;;
66342;SDS011;53144;51.524;5.080;2023-04-25T00:31:53;13.07;;;4.85;;
66342;SDS011;53144;51.524;5.080;2023-04-25T00:34:19;12.65;;;4.75;;
66342;SDS011;53144;51.524;5.080;2023-04-25T00:36:44;13.40;;;4.43;;
66342;SDS011;53144;51.524;5.080;2023-04-25T00:39:09;19.20;;;5.60;;
66342;SDS011;53144;51.524;5.080;2023-04-25T00:41:35;15.55;;;5.45;;
66342;SDS011;53144;51.524;5.080;2023-04-25T00:46:27;14.48;;;4.75;;
66342;SDS011;53144;51.524;5.080;2023-04-25T00:48:52;11.52;;;5.25;;
66342;SDS011;53144;51.524;5.080;2023-04-25T00:51:19;12.88;;;4.90;;
66342;SDS011;53144;51.524;5.080;2023-04-25T00:53:45;12.73;;;5.50;;
66342;SDS011;53144;51.524;5.080;2023-04-25T00:56:12;16.60;;;5.38;;
66342;SDS011;53144;51.524;5.080;2023-04-25T00:58:38;16.10;;;5.47;;
66342;SDS011;53144;51.524;5.080;2023-04-25T01:01:05;13.30;;;4.85;;
66342;SDS011;53144;51.524;5.080;2023-04-25T01:03:32;12.50;;;4.85;;
66342;SDS011;53144;51.524;5.080;2023-04-25T01:06:01;19.45;;;6.53;;
66342;SDS011;53144;51.524;5.080;2023-04-25T01:08:27;18.25;;;5.50;;
66342;SDS011;53144;51.524;5.080;2023-04-25T01:10:53;14.98;;;5.35;;
66342;SDS011;53144;51.524;5.080;2023-04-25T01:13:18;16.00;;;5.80;;
66342;SDS011;53144;51.524;5.080;2023-04-25T01:15:44;16.88;;;5.70;;
66342;SDS011;53144;51.524;5.080;2023-04-25T01:18:10;15.98;;;5.75;;
66342;SDS011;53144;51.524;5.080;2023-04-25T01:20:36;17.40;;;5.53;;
66342;SDS011;53144;51.524;5.080;2023-04-25T01:23:03;19.17;;;5.55;;
66342;SDS011;53144;51.524;5.080;2023-04-25T01:25:29;18.33;;;5.78;;
66342;SDS011;53144;51.524;5.080;2023-04-25T01:27:55;19.38;;;5.38;;
66342;SDS011;53144;51.524;5.080;2023-04-25T01:32:47;17.10;;;5.97;;
66342;SDS011;53144;51.524;5.080;2023-04-25T01:37:41;14.88;;;5.18;;
66342;SDS011;53144;51.524;5.080;2023-04-25T01:40:11;18.20;;;5.72;;
66342;SDS011;53144;51.524;5.080;2023-04-25T01:42:38;19.08;;;5.53;;
66342;SDS011;53144;51.524;5.080;2023-04-25T01:45:05;16.08;;;5.53;;
66342;SDS011;53144;51.524;5.080;2023-04-25T01:47:31;18.50;;;5.00;;
66342;SDS011;53144;51.524;5.080;2023-04-25T01:49:57;14.57;;;5.20;;
66342;SDS011;53144;51.524;5.080;2023-04-25T01:52:23;16.90;;;5.38;;
66342;SDS011;53144;51.524;5.080;2023-04-25T01:54:48;20.42;;;5.47;;
66342;SDS011;53144;51.524;5.080;2023-04-25T01:57:16;19.70;;;5.50;;
66342;SDS011;53144;51.524;5.080;2023-04-25T01:59:41;13.23;;;4.47;;
66342;SDS011;53144;51.524;5.080;2023-04-25T02:02:08;15.02;;;4.88;;
66342;SDS011;53144;51.524;5.080;2023-04-25T02:04:33;16.08;;;4.53;;
66342;SDS011;53144;51.524;5.080;2023-04-25T02:06:58;17.92;;;5.10;;
66342;SDS011;53144;51.524;5.080;2023-04-25T02:09:24;21.05;;;5.93;;
66342;SDS011;53144;51.524;5.080;2023-04-25T02:11:49;18.40;;;4.82;;
66342;SDS011;53144;51.524;5.080;2023-04-25T02:14:15;20.85;;;4.88;;
66342;SDS011;53144;51.524;5.080;2023-04-25T02:16:40;14.38;;;5.15;;
66342;SDS011;53144;51.524;5.080;2023-04-25T02:19:08;18.85;;;5.40;;
66342;SDS011;53144;51.524;5.080;2023-04-25T02:21:35;19.60;;;6.22;;
66342;SDS011;53144;51.524;5.080;2023-04-25T02:24:00;22.48;;;5.50;;
66342;SDS011;53144;51.524;5.080;2023-04-25T02:26:26;17.42;;;5.25;;
66342;SDS011;53144;51.524;5.080;2023-04-25T02:28:51;14.98;;;5.03;;
66342;SDS011;53144;51.524;5.080;2023-04-25T02:31:17;16.35;;;5.43;;
66342;SDS011;53144;51.524;5.080;2023-04-25T02:33:43;18.08;;;5.70;;
66342;SDS011;53144;51.524;5.080;2023-04-25T02:36:09;17.05;;;5.35;;
66342;SDS011;53144;51.524;5.080;2023-04-25T02:38:34;19.42;;;5.90;;
66342;SDS011;53144;51.524;5.080;2023-04-25T02:41:00;20.67;;;6.07;;
66342;SDS011;53144;51.524;5.080;2023-04-25T02:43:25;15.02;;;5.43;;
66342;SDS011;53144;51.524;5.080;2023-04-25T02:45:50;29.88;;;5.82;;
66342;SDS011;53144;51.524;5.080;2023-04-25T02:48:16;21.70;;;6.13;;
66342;SDS011;53144;51.524;5.080;2023-04-25T02:50:41;19.13;;;6.00;;
66342;SDS011;53144;51.524;5.080;2023-04-25T02:53:07;16.33;;;5.00;;
66342;SDS011;53144;51.524;5.080;2023-04-25T02:55:32;18.30;;;6.03;;
66342;SDS011;53144;51.524;5.080;2023-04-25T02:57:58;16.17;;;5.75;;
66342;SDS011;53144;51.524;5.080;2023-04-25T03:00:23;21.90;;;5.80;;
66342;SDS011;53144;51.524;5.080;2023-04-25T03:02:49;20.15;;;6.22;;
66342;SDS011;53144;51.524;5.080;2023-04-25T03:05:16;14.35;;;6.00;;
66342;SDS011;53144;51.524;5.080;2023-04-25T03:07:41;22.48;;;6.20;;
66342;SDS011;53144;51.524;5.080;2023-04-25T03:10:08;18.48;;;6.22;;
66342;SDS011;53144;51.524;5.080;2023-04-25T03:12:34;20.63;;;5.82;;
66342;SDS011;53144;51.524;5.080;2023-04-25T03:14:59;20.63;;;5.78;;
66342;SDS011;53144;51.524;5.080;2023-04-25T03:17:25;15.32;;;5.93;;
66342;SDS011;53144;51.524;5.080;2023-04-25T03:19:50;16.70;;;5.07;;
66342;SDS011;53144;51.524;5.080;2023-04-25T03:22:16;20.20;;;6.20;;
66342;SDS011;53144;51.524;5.080;2023-04-25T03:24:41;15.33;;;5.77;;
66342;SDS011;53144;51.524;5.080;2023-04-25T03:27:06;20.98;;;6.53;;
66342;SDS011;53144;51.524;5.080;2023-04-25T03:29:32;19.38;;;6.47;;
66342;SDS011;53144;51.524;5.080;2023-04-25T03:31:57;18.52;;;5.45;;
66342;SDS011;53144;51.524;5.080;2023-04-25T03:34:22;18.23;;;6.07;;
66342;SDS011;53144;51.524;5.080;2023-04-25T03:39:14;18.35;;;6.28;;
66342;SDS011;53144;51.524;5.080;2023-04-25T03:41:40;11.45;;;5.00;;
66342;SDS011;53144;51.524;5.080;2023-04-25T03:44:05;18.42;;;5.80;;
66342;SDS011;53144;51.524;5.080;2023-04-25T03:46:31;15.68;;;5.72;;
66342;SDS011;53144;51.524;5.080;2023-04-25T03:48:56;18.10;;;5.60;;
66342;SDS011;53144;51.524;5.080;2023-04-25T03:51:22;29.58;;;6.43;;
66342;SDS011;53144;51.524;5.080;2023-04-25T03:53:47;18.15;;;6.20;;
66342;SDS011;53144;51.524;5.080;2023-04-25T03:56:13;19.08;;;5.90;;
66342;SDS011;53144;51.524;5.080;2023-04-25T03:58:38;17.73;;;6.10;;
66342;SDS011;53144;51.524;5.080;2023-04-25T04:01:04;19.13;;;6.57;;
66342;SDS011;53144;51.524;5.080;2023-04-25T04:03:32;24.45;;;6.97;;
66342;SDS011;53144;51.524;5.080;2023-04-25T04:06:05;26.70;;;6.03;;
66342;SDS011;53144;51.524;5.080;2023-04-25T04:08:31;16.95;;;6.38;;
66342;SDS011;53144;51.524;5.080;2023-04-25T04:10:57;18.48;;;6.10;;
66342;SDS011;53144;51.524;5.080;2023-04-25T04:13:23;17.45;;;6.03;;
66342;SDS011;53144;51.524;5.080;2023-04-25T04:15:50;20.33;;;6.20;;
66342;SDS011;53144;51.524;5.080;2023-04-25T04:18:15;15.15;;;5.80;;
66342;SDS011;53144;51.524;5.080;2023-04-25T04:20:41;21.35;;;7.20;;
66342;SDS011;53144;51.524;5.080;2023-04-25T04:23:06;21.60;;;7.05;;
66342;SDS011;53144;51.524;5.080;2023-04-25T04:25:31;22.33;;;7.75;;
66342;SDS011;53144;51.524;5.080;2023-04-25T04:27:57;18.35;;;5.78;;
66342;SDS011;53144;51.524;5.080;2023-04-25T04:30:24;17.77;;;6.63;;
66342;SDS011;53144;51.524;5.080;2023-04-25T04:32:50;15.00;;;5.82;;
66342;SDS011;53144;51.524;5.080;2023-04-25T04:35:16;23.52;;;6.07;;
66342;SDS011;53144;51.524;5.080;2023-04-25T04:37:42;17.85;;;6.18;;
66342;SDS011;53144;51.524;5.080;2023-04-25T04:40:08;21.05;;;5.45;;
66342;SDS011;53144;51.524;5.080;2023-04-25T04:42:34;22.90;;;6.20;;
66342;SDS011;53144;51.524;5.080;2023-04-25T04:45:01;21.25;;;5.75;;
66342;SDS011;53144;51.524;5.080;2023-04-25T04:47:28;20.05;;;5.35;;
66342;SDS011;53144;51.524;5.080;2023-04-25T04:49:56;19.10;;;6.78;;
66342;SDS011;53144;51.524;5.080;2023-04-25T04:52:22;16.08;;;6.93;;
66342;SDS011;53144;51.524;5.080;2023-04-25T04:54:47;22.83;;;6.30;;
66342;SDS011;53144;51.524;5.080;2023-04-25T04:57:13;17.83;;;5.80;;
66342;SDS011;53144;51.524;5.080;2023-04-25T04:59:38;20.83;;;6.53;;
66342;SDS011;53144;51.524;5.080;2023-04-25T05:02:03;22.98;;;6.53;;
66342;SDS011;53144;51.524;5.080;2023-04-25T05:04:29;18.50;;;5.97;;
66342;SDS011;53144;51.524;5.080;2023-04-25T05:06:54;14.98;;;5.53;;
66342;SDS011;53144;51.524;5.080;2023-04-25T05:09:20;11.15;;;5.57;;
66342;SDS011;53144;51.524;5.080;2023-04-25T05:11:45;19.85;;;5.50;;
66342;SDS011;53144;51.524;5.080;2023-04-25T05:14:11;14.90;;;4.20;;
66342;SDS011;53144;51.524;5.080;2023-04-25T05:16:36;16.13;;;5.45;;
66342;SDS011;53144;51.524;5.080;2023-04-25T05:19:01;18.67;;;4.50;;
66342;SDS011;53144;51.524;5.080;2023-04-25T05:21:27;14.57;;;4.60;;
66342;SDS011;53144;51.524;5.080;2023-04-25T05:23:53;13.55;;;5.05;;
66342;SDS011;53144;51.524;5.080;2023-04-25T05:26:19;13.80;;;3.83;;
66342;SDS011;53144;51.524;5.080;2023-04-25T05:28:45;14.00;;;4.15;;
66342;SDS011;53144;51.524;5.080;2023-04-25T05:31:11;12.43;;;4.18;;
66342;SDS011;53144;51.524;5.080;2023-04-25T05:33:36;9.85;;;3.67;;
66342;SDS011;53144;51.524;5.080;2023-04-25T05:36:02;13.38;;;3.80;;
66342;SDS011;53144;51.524;5.080;2023-04-25T05:38:27;18.15;;;3.70;;
66342;SDS011;53144;51.524;5.080;2023-04-25T05:40:53;9.45;;;3.60;;
66342;SDS011;53144;51.524;5.080;2023-04-25T05:43:18;10.70;;;3.30;;
66342;SDS011;53144;51.524;5.080;2023-04-25T05:45:43;10.65;;;3.05;;
66342;SDS011;53144;51.524;5.080;2023-04-25T05:48:09;7.28;;;3.33;;
66342;SDS011;53144;51.524;5.080;2023-04-25T05:50:34;12.73;;;3.10;;
66342;SDS011;53144;51.524;5.080;2023-04-25T05:53:00;9.98;;;3.15;;
66342;SDS011;53144;51.524;5.080;2023-04-25T05:55:25;10.95;;;2.80;;
66342;SDS011;53144;51.524;5.080;2023-04-25T05:57:51;11.55;;;2.40;;
66342;SDS011;53144;51.524;5.080;2023-04-25T06:00:16;11.07;;;2.80;;
66342;SDS011;53144;51.524;5.080;2023-04-25T06:02:43;11.52;;;2.47;;
66342;SDS011;53144;51.524;5.080;2023-04-25T06:05:09;8.73;;;2.45;;
66342;SDS011;53144;51.524;5.080;2023-04-25T06:07:34;11.10;;;2.50;;
66342;SDS011;53144;51.524;5.080;2023-04-25T06:10:00;10.40;;;2.58;;
66342;SDS011;53144;51.524;5.080;2023-04-25T06:12:26;14.73;;;2.50;;
66342;SDS011;53144;51.524;5.080;2023-04-25T06:14:51;12.88;;;2.60;;
66342;SDS011;53144;51.524;5.080;2023-04-25T06:17:16;9.20;;;1.90;;
66342;SDS011;53144;51.524;5.080;2023-04-25T06:22:07;8.35;;;2.10;;
66342;SDS011;53144;51.524;5.080;2023-04-25T06:24:33;15.48;;;3.85;;
66342;SDS011;53144;51.524;5.080;2023-04-25T06:26:58;9.77;;;2.13;;
66342;SDS011;53144;51.524;5.080;2023-04-25T06:31:50;7.03;;;1.98;;
66342;SDS011;53144;51.524;5.080;2023-04-25T06:34:15;7.30;;;2.10;;
66342;SDS011;53144;51.524;5.080;2023-04-25T06:36:41;11.57;;;2.30;;
66342;SDS011;53144;51.524;5.080;2023-04-25T06:39:06;13.73;;;2.08;;
66342;SDS011;53144;51.524;5.080;2023-04-25T06:41:32;9.60;;;2.00;;
66342;SDS011;53144;51.524;5.080;2023-04-25T06:43:57;7.78;;;2.00;;
66342;SDS011;53144;51.524;5.080;2023-04-25T06:46:22;9.50;;;2.40;;
66342;SDS011;53144;51.524;5.080;2023-04-25T06:48:48;14.45;;;2.45;;
66342;SDS011;53144;51.524;5.080;2023-04-25T06:53:39;8.32;;;2.22;;
66342;SDS011;53144;51.524;5.080;2023-04-25T06:56:05;6.18;;;1.55;;
66342;SDS011;53144;51.524;5.080;2023-04-25T06:58:30;7.68;;;2.72;;
66342;SDS011;53144;51.524;5.080;2023-04-25T07:00:56;10.20;;;2.60;;
66342;SDS011;53144;51.524;5.080;2023-04-25T07:05:47;8.88;;;2.25;;
66342;SDS011;53144;51.524;5.080;2023-04-25T07:08:12;11.90;;;2.33;;
66342;SDS011;53144;51.524;5.080;2023-04-25T07:10:37;16.45;;;2.58;;
66342;SDS011;53144;51.524;5.080;2023-04-25T07:13:03;10.20;;;2.28;;
66342;SDS011;53144;51.524;5.080;2023-04-25T07:15:28;10.02;;;2.42;;
66342;SDS011;53144;51.524;5.080;2023-04-25T07:17:55;9.38;;;2.00;;
66342;SDS011;53144;51.524;5.080;2023-04-25T07:20:20;16.85;;;2.55;;
66342;SDS011;53144;51.524;5.080;2023-04-25T07:22:45;9.20;;;2.15;;
66342;SDS011;53144;51.524;5.080;2023-04-25T07:25:11;7.32;;;1.92;;
66342;SDS011;53144;51.524;5.080;2023-04-25T07:27:36;10.18;;;2.17;;
66342;SDS011;53144;51.524;5.080;2023-04-25T07:32:28;10.10;;;2.08;;
66342;SDS011;53144;51.524;5.080;2023-04-25T07:34:54;6.45;;;1.88;;
66342;SDS011;53144;51.524;5.080;2023-04-25T07:37:20;8.38;;;1.73;;
66342;SDS011;53144;51.524;5.080;2023-04-25T07:39:45;11.32;;;2.08;;
66342;SDS011;53144;51.524;5.080;2023-04-25T07:42:11;11.25;;;1.90;;
66342;SDS011;53144;51.524;5.080;2023-04-25T07:44:37;9.57;;;2.13;;
66342;SDS011;53144;51.524;5.080;2023-04-25T07:47:06;9.45;;;2.33;;
66342;SDS011;53144;51.524;5.080;2023-04-25T07:49:33;7.03;;;1.70;;
66342;SDS011;53144;51.524;5.080;2023-04-25T07:51:59;7.78;;;2.33;;
66342;SDS011;53144;51.524;5.080;2023-04-25T07:54:25;9.00;;;2.00;;
66342;SDS011;53144;51.524;5.080;2023-04-25T07:56:51;15.73;;;2.03;;
66342;SDS011;53144;51.524;5.080;2023-04-25T08:01:42;6.63;;;1.60;;
66342;SDS011;53144;51.524;5.080;2023-04-25T08:04:07;6.53;;;1.77;;
66342;SDS011;53144;51.524;5.080;2023-04-25T08:08:58;4.15;;;1.50;;
66342;SDS011;53144;51.524;5.080;2023-04-25T08:11:23;4.72;;;1.45;;
66342;SDS011;53144;51.524;5.080;2023-04-25T08:13:48;5.70;;;1.60;;
66342;SDS011;53144;51.524;5.080;2023-04-25T08:16:14;8.23;;;1.75;;
66342;SDS011;53144;51.524;5.080;2023-04-25T08:18:39;12.02;;;2.17;;
66342;SDS011;53144;51.524;5.080;2023-04-25T08:23:31;8.73;;;1.75;;
66342;SDS011;53144;51.524;5.080;2023-04-25T08:25:57;9.60;;;1.92;;
66342;SDS011;53144;51.524;5.080;2023-04-25T08:30:47;7.20;;;1.88;;
66342;SDS011;53144;51.524;5.080;2023-04-25T08:35:38;7.90;;;2.20;;
66342;SDS011;53144;51.524;5.080;2023-04-25T08:40:29;6.82;;;2.10;;
66342;SDS011;53144;51.524;5.080;2023-04-25T08:43:00;10.57;;;1.70;;
66342;SDS011;53144;51.524;5.080;2023-04-25T08:45:28;5.10;;;1.42;;
66342;SDS011;53144;51.524;5.080;2023-04-25T08:47:56;7.00;;;1.45;;
66342;SDS011;53144;51.524;5.080;2023-04-25T08:50:22;6.65;;;1.60;;
66342;SDS011;53144;51.524;5.080;2023-04-25T08:55:15;10.23;;;2.47;;
66342;SDS011;53144;51.524;5.080;2023-04-25T09:00:10;5.40;;;1.55;;
66342;SDS011;53144;51.524;5.080;2023-04-25T09:02:38;7.53;;;1.40;;
66342;SDS011;53144;51.524;5.080;2023-04-25T09:05:04;8.48;;;1.40;;
66342;SDS011;53144;51.524;5.080;2023-04-25T09:07:31;7.70;;;1.67;;
66342;SDS011;53144;51.524;5.080;2023-04-25T09:09:58;5.90;;;1.75;;
66342;SDS011;53144;51.524;5.080;2023-04-25T09:12:26;10.40;;;1.92;;
66342;SDS011;53144;51.524;5.080;2023-04-25T09:15:06;9.48;;;1.65;;
66342;SDS011;53144;51.524;5.080;2023-04-25T09:17:36;7.15;;;1.75;;
66342;SDS011;53144;51.524;5.080;2023-04-25T09:20:09;5.15;;;1.30;;
66342;SDS011;53144;51.524;5.080;2023-04-25T09:22:36;5.38;;;1.70;;
66342;SDS011;53144;51.524;5.080;2023-04-25T09:25:08;4.68;;;1.60;;
66342;SDS011;53144;51.524;5.080;2023-04-25T09:27:35;6.82;;;1.60;;
66342;SDS011;53144;51.524;5.080;2023-04-25T09:30:01;7.18;;;1.42;;
66342;SDS011;53144;51.524;5.080;2023-04-25T09:34:53;11.95;;;1.88;;
66342;SDS011;53144;51.524;5.080;2023-04-25T09:37:26;5.53;;;1.55;;
66342;SDS011;53144;51.524;5.080;2023-04-25T09:39:56;8.77;;;1.77;;
66342;SDS011;53144;51.524;5.080;2023-04-25T09:42:25;5.88;;;1.75;;
66342;SDS011;53144;51.524;5.080;2023-04-25T09:44:53;3.97;;;1.30;;
66342;SDS011;53144;51.524;5.080;2023-04-25T09:47:19;7.60;;;1.85;;
66342;SDS011;53144;51.524;5.080;2023-04-25T09:49:47;7.72;;;2.00;;
66342;SDS011;53144;51.524;5.080;2023-04-25T09:54:40;5.13;;;1.15;;
66342;SDS011;53144;51.524;5.080;2023-04-25T09:59:51;7.38;;;1.52;;
66342;SDS011;53144;51.524;5.080;2023-04-25T10:02:18;5.60;;;1.83;;
66342;SDS011;53144;51.524;5.080;2023-04-25T10:04:47;4.20;;;1.10;;
66342;SDS011;53144;51.524;5.080;2023-04-25T10:07:14;6.45;;;1.40;;
66342;SDS011;53144;51.524;5.080;2023-04-25T10:09:40;6.60;;;1.38;;
66342;SDS011;53144;51.524;5.080;2023-04-25T10:12:07;4.45;;;1.30;;
66342;SDS011;53144;51.524;5.080;2023-04-25T10:14:33;3.67;;;1.30;;
66342;SDS011;53144;51.524;5.080;2023-04-25T10:16:59;4.95;;;1.38;;
66342;SDS011;53144;51.524;5.080;2023-04-25T10:19:26;3.40;;;1.10;;
66342;SDS011;53144;51.524;5.080;2023-04-25T10:24:17;6.80;;;1.65;;
66342;SDS011;53144;51.524;5.080;2023-04-25T10:26:44;5.18;;;1.23;;
66342;SDS011;53144;51.524;5.080;2023-04-25T10:31:37;6.40;;;1.58;;
66342;SDS011;53144;51.524;5.080;2023-04-25T10:34:10;5.57;;;1.35;;
66342;SDS011;53144;51.524;5.080;2023-04-25T10:36:36;7.03;;;2.72;;
66342;SDS011;53144;51.524;5.080;2023-04-25T10:39:06;7.28;;;1.40;;
66342;SDS011;53144;51.524;5.080;2023-04-25T10:41:45;4.45;;;1.40;;
66342;SDS011;53144;51.524;5.080;2023-04-25T10:44:12;5.25;;;1.20;;
66342;SDS011;53144;51.524;5.080;2023-04-25T10:46:39;7.72;;;1.38;;
66342;SDS011;53144;51.524;5.080;2023-04-25T10:51:33;3.40;;;1.20;;
66342;SDS011;53144;51.524;5.080;2023-04-25T10:54:00;6.85;;;1.92;;
66342;SDS011;53144;51.524;5.080;2023-04-25T10:59:05;4.85;;;1.38;;
66342;SDS011;53144;51.524;5.080;2023-04-25T11:01:43;6.90;;;1.80;;
66342;SDS011;53144;51.524;5.080;2023-04-25T11:04:28;6.07;;;1.67;;
66342;SDS011;53144;51.524;5.080;2023-04-25T11:09:47;6.53;;;1.40;;
66342;SDS011;53144;51.524;5.080;2023-04-25T11:12:14;5.65;;;1.20;;
66342;SDS011;53144;51.524;5.080;2023-04-25T11:17:05;8.55;;;1.27;;
66342;SDS011;53144;51.524;5.080;2023-04-25T11:21:57;4.80;;;1.58;;
66342;SDS011;53144;51.524;5.080;2023-04-25T11:24:27;4.50;;;1.23;;
66342;SDS011;53144;51.524;5.080;2023-04-25T11:26:53;7.07;;;1.40;;
66342;SDS011;53144;51.524;5.080;2023-04-25T11:31:47;7.20;;;1.50;;
66342;SDS011;53144;51.524;5.080;2023-04-25T11:36:41;7.68;;;1.60;;
66342;SDS011;53144;51.524;5.080;2023-04-25T11:41:32;6.35;;;1.67;;
66342;SDS011;53144;51.524;5.080;2023-04-25T11:46:22;6.50;;;1.45;;
66342;SDS011;53144;51.524;5.080;2023-04-25T11:51:15;6.90;;;1.60;;
66342;SDS011;53144;51.524;5.080;2023-04-25T11:53:41;7.25;;;1.40;;
66342;SDS011;53144;51.524;5.080;2023-04-25T11:56:09;5.32;;;1.40;;
66342;SDS011;53144;51.524;5.080;2023-04-25T11:58:55;5.18;;;1.30;;
66342;SDS011;53144;51.524;5.080;2023-04-25T12:01:27;3.53;;;1.42;;
66342;SDS011;53144;51.524;5.080;2023-04-25T12:04:10;6.22;;;1.38;;
66342;SDS011;53144;51.524;5.080;2023-04-25T12:06:39;8.63;;;1.77;;
66342;SDS011;53144;51.524;5.080;2023-04-25T12:09:07;4.50;;;1.20;;
66342;SDS011;53144;51.524;5.080;2023-04-25T12:11:46;3.55;;;1.30;;
66342;SDS011;53144;51.524;5.080;2023-04-25T12:14:29;5.13;;;1.25;;
66342;SDS011;53144;51.524;5.080;2023-04-25T12:16:57;4.35;;;1.58;;
66342;SDS011;53144;51.524;5.080;2023-04-25T12:19:36;7.13;;;1.92;;
66342;SDS011;53144;51.524;5.080;2023-04-25T12:22:18;7.43;;;1.35;;
66342;SDS011;53144;51.524;5.080;2023-04-25T12:24:45;3.92;;;1.27;;
66342;SDS011;53144;51.524;5.080;2023-04-25T12:29:49;5.07;;;1.30;;
66342;SDS011;53144;51.524;5.080;2023-04-25T12:32:16;6.15;;;1.20;;
66342;SDS011;53144;51.524;5.080;2023-04-25T12:34:42;4.18;;;0.98;;
66342;SDS011;53144;51.524;5.080;2023-04-25T12:37:08;4.13;;;1.20;;
66342;SDS011;53144;51.524;5.080;2023-04-25T12:39:34;7.05;;;1.70;;
66342;SDS011;53144;51.524;5.080;2023-04-25T12:44:24;8.73;;;1.70;;
66342;SDS011;53144;51.524;5.080;2023-04-25T12:49:15;3.53;;;1.50;;
66342;SDS011;53144;51.524;5.080;2023-04-25T12:54:06;6.93;;;1.30;;
66342;SDS011;53144;51.524;5.080;2023-04-25T12:56:33;3.72;;;1.30;;
66342;SDS011;53144;51.524;5.080;2023-04-25T12:58:59;2.10;;;1.05;;
66342;SDS011;53144;51.524;5.080;2023-04-25T13:01:25;4.95;;;1.30;;
66342;SDS011;53144;51.524;5.080;2023-04-25T13:03:51;5.65;;;1.50;;
66342;SDS011;53144;51.524;5.080;2023-04-25T13:06:17;6.57;;;1.75;;
66342;SDS011;53144;51.524;5.080;2023-04-25T13:08:44;6.75;;;1.75;;
66342;SDS011;53144;51.524;5.080;2023-04-25T13:13:34;5.55;;;1.00;;
66342;SDS011;53144;51.524;5.080;2023-04-25T13:18:27;5.13;;;1.13;;
66342;SDS011;53144;51.524;5.080;2023-04-25T13:20:53;3.92;;;1.10;;
66342;SDS011;53144;51.524;5.080;2023-04-25T13:25:44;5.50;;;1.25;;
66342;SDS011;53144;51.524;5.080;2023-04-25T13:30:35;3.80;;;1.08;;
66342;SDS011;53144;51.524;5.080;2023-04-25T13:35:28;4.85;;;1.25;;
66342;SDS011;53144;51.524;5.080;2023-04-25T13:37:54;6.18;;;1.48;;
66342;SDS011;53144;51.524;5.080;2023-04-25T13:42:45;9.38;;;1.50;;
66342;SDS011;53144;51.524;5.080;2023-04-25T13:47:36;5.82;;;1.50;;
66342;SDS011;53144;51.524;5.080;2023-04-25T13:52:28;4.35;;;1.33;;
66342;SDS011;53144;51.524;5.080;2023-04-25T13:57:19;4.65;;;1.23;;
66342;SDS011;53144;51.524;5.080;2023-04-25T14:02:11;4.80;;;1.25;;
66342;SDS011;53144;51.524;5.080;2023-04-25T14:07:02;7.70;;;1.45;;
66342;SDS011;53144;51.524;5.080;2023-04-25T14:11:53;3.92;;;1.38;;
66342;SDS011;53144;51.524;5.080;2023-04-25T14:16:45;4.07;;;1.10;;
66342;SDS011;53144;51.524;5.080;2023-04-25T14:19:13;1.60;;;1.00;;
66342;SDS011;53144;51.524;5.080;2023-04-25T14:21:39;4.63;;;1.17;;
66342;SDS011;53144;51.524;5.080;2023-04-25T14:26:30;4.35;;;1.30;;
66342;SDS011;53144;51.524;5.080;2023-04-25T14:31:20;6.50;;;1.42;;
66342;SDS011;53144;51.524;5.080;2023-04-25T14:36:11;6.85;;;1.50;;
66342;SDS011;53144;51.524;5.080;2023-04-25T14:41:02;5.13;;;1.38;;
66342;SDS011;53144;51.524;5.080;2023-04-25T14:45:53;3.92;;;1.35;;
66342;SDS011;53144;51.524;5.080;2023-04-25T14:50:47;5.72;;;1.50;;
66342;SDS011;53144;51.524;5.080;2023-04-25T14:53:12;3.30;;;1.15;;
66342;SDS011;53144;51.524;5.080;2023-04-25T14:58:03;2.22;;;1.15;;
66342;SDS011;53144;51.524;5.080;2023-04-25T15:02:55;4.00;;;1.30;;
66342;SDS011;53144;51.524;5.080;2023-04-25T15:05:21;3.05;;;1.20;;
66342;SDS011;53144;51.524;5.080;2023-04-25T15:10:12;5.60;;;1.40;;
66342;SDS011;53144;51.524;5.080;2023-04-25T15:12:44;7.75;;;1.50;;
66342;SDS011;53144;51.524;5.080;2023-04-25T15:15:10;4.93;;;1.50;;
66342;SDS011;53144;51.524;5.080;2023-04-25T15:20:02;5.88;;;1.38;;
66342;SDS011;53144;51.524;5.080;2023-04-25T15:22:30;4.53;;;1.17;;
66342;SDS011;53144;51.524;5.080;2023-04-25T15:24:55;6.25;;;1.38;;
66342;SDS011;53144;51.524;5.080;2023-04-25T15:29:47;5.70;;;1.35;;
66342;SDS011;53144;51.524;5.080;2023-04-25T15:34:37;4.15;;;1.77;;
66342;SDS011;53144;51.524;5.080;2023-04-25T15:39:28;6.68;;;1.50;;
66342;SDS011;53144;51.524;5.080;2023-04-25T15:44:18;4.60;;;1.60;;
66342;SDS011;53144;51.524;5.080;2023-04-25T15:49:10;6.40;;;1.60;;
66342;SDS011;53144;51.524;5.080;2023-04-25T15:51:35;6.68;;;1.85;;
66342;SDS011;53144;51.524;5.080;2023-04-25T15:54:01;7.75;;;1.52;;
66342;SDS011;53144;51.524;5.080;2023-04-25T15:56:26;6.60;;;1.63;;
66342;SDS011;53144;51.524;5.080;2023-04-25T15:58:52;5.13;;;1.33;;
66342;SDS011;53144;51.524;5.080;2023-04-25T16:01:19;5.45;;;1.77;;
66342;SDS011;53144;51.524;5.080;2023-04-25T16:03:48;6.15;;;2.00;;
66342;SDS011;53144;51.524;5.080;2023-04-25T16:06:14;9.75;;;1.70;;
66342;SDS011;53144;51.524;5.080;2023-04-25T16:08:40;4.22;;;1.35;;
66342;SDS011;53144;51.524;5.080;2023-04-25T16:13:31;6.43;;;1.92;;
66342;SDS011;53144;51.524;5.080;2023-04-25T16:18:23;5.82;;;1.67;;
66342;SDS011;53144;51.524;5.080;2023-04-25T16:23:14;4.75;;;1.42;;
66342;SDS011;53144;51.524;5.080;2023-04-25T16:28:05;3.67;;;1.02;;
66342;SDS011;53144;51.524;5.080;2023-04-25T16:30:30;5.13;;;1.50;;
66342;SDS011;53144;51.524;5.080;2023-04-25T16:32:56;7.78;;;1.30;;
66342;SDS011;53144;51.524;5.080;2023-04-25T16:37:48;4.35;;;1.40;;
66342;SDS011;53144;51.524;5.080;2023-04-25T16:40:14;3.58;;;1.98;;
66342;SDS011;53144;51.524;5.080;2023-04-25T16:42:39;7.22;;;1.55;;
66342;SDS011;53144;51.524;5.080;2023-04-25T16:45:05;5.63;;;1.17;;
66342;SDS011;53144;51.524;5.080;2023-04-25T16:49:56;5.13;;;1.42;;
66342;SDS011;53144;51.524;5.080;2023-04-25T16:52:23;2.60;;;1.05;;
66342;SDS011;53144;51.524;5.080;2023-04-25T16:54:48;6.78;;;1.60;;
66342;SDS011;53144;51.524;5.080;2023-04-25T16:59:39;4.95;;;1.77;;
66342;SDS011;53144;51.524;5.080;2023-04-25T17:04:32;2.97;;;1.50;;
66342;SDS011;53144;51.524;5.080;2023-04-25T17:06:57;4.20;;;1.45;;
66342;SDS011;53144;51.524;5.080;2023-04-25T17:09:23;3.78;;;1.10;;
66342;SDS011;53144;51.524;5.080;2023-04-25T17:14:13;3.40;;;1.10;;
66342;SDS011;53144;51.524;5.080;2023-04-25T17:19:04;4.93;;;1.20;;
66342;SDS011;53144;51.524;5.080;2023-04-25T17:23:55;5.28;;;1.30;;
66342;SDS011;53144;51.524;5.080;2023-04-25T17:26:22;2.45;;;1.10;;
66342;SDS011;53144;51.524;5.080;2023-04-25T17:28:48;5.55;;;1.58;;
66342;SDS011;53144;51.524;5.080;2023-04-25T17:33:39;6.25;;;1.70;;
66342;SDS011;53144;51.524;5.080;2023-04-25T17:36:05;12.23;;;1.80;;
66342;SDS011;53144;51.524;5.080;2023-04-25T17:38:31;4.70;;;1.60;;
66342;SDS011;53144;51.524;5.080;2023-04-25T17:43:22;7.68;;;1.88;;
66342;SDS011;53144;51.524;5.080;2023-04-25T17:45:47;9.65;;;1.70;;